sensor_id;sensor_type;location;lat;lon;timestamp;P1;durP1;ratioP1;P2;durP2;ratioP2
787;SDS011;16074;42.708;23.312;2024-02-21T00:00:27;9.50;;;4.88;;
787;SDS011;16074;42.708;23.312;2024-02-21T00:02:53;7.73;;;4.60;;
787;SDS011;16074;42.708;23.312;2024-02-21T00:05:18;6.00;;;4.20;;
787;SDS011;16074;42.708;23.312;2024-02-21T00:07:43;6.50;;;4.40;;
787;SDS011;16074;42.708;23.312;2024-02-21T00:10:08;7.27;;;4.57;;
787;SDS011;16074;42.708;23.312;2024-02-21T00:12:34;7.20;;;4.43;;
787;SDS011;16074;42.708;23.312;2024-02-21T00:14:59;7.93;;;3.67;;
787;SDS011;16074;42.708;23.312;2024-02-21T00:17:25;7.83;;;4.80;;
787;SDS011;16074;42.708;23.312;2024-02-21T00:19:51;7.55;;;3.90;;
787;SDS011;16074;42.708;23.312;2024-02-21T00:22:16;7.73;;;4.23;;
787;SDS011;16074;42.708;23.312;2024-02-21T00:24:41;7.50;;;4.13;;
787;SDS011;16074;42.708;23.312;2024-02-21T00:27:06;10.23;;;4.67;;
787;SDS011;16074;42.708;23.312;2024-02-21T00:29:32;6.32;;;4.10;;
787;SDS011;16074;42.708;23.312;2024-02-21T00:31:57;7.70;;;4.07;;
787;SDS011;16074;42.708;23.312;2024-02-21T00:34:22;7.63;;;4.20;;
787;SDS011;16074;42.708;23.312;2024-02-21T00:36:48;5.53;;;3.53;;
787;SDS011;16074;42.708;23.312;2024-02-21T00:39:13;5.17;;;3.60;;
787;SDS011;16074;42.708;23.312;2024-02-21T00:41:38;7.40;;;4.07;;
787;SDS011;16074;42.708;23.312;2024-02-21T00:44:03;7.07;;;3.97;;
787;SDS011;16074;42.708;23.312;2024-02-21T00:46:30;7.57;;;4.07;;
787;SDS011;16074;42.708;23.312;2024-02-21T00:48:55;10.70;;;5.03;;
787;SDS011;16074;42.708;23.312;2024-02-21T00:51:21;7.20;;;4.43;;
787;SDS011;16074;42.708;23.312;2024-02-21T00:53:46;6.77;;;3.97;;
787;SDS011;16074;42.708;23.312;2024-02-21T00:56:11;5.20;;;3.07;;
787;SDS011;16074;42.708;23.312;2024-02-21T00:58:37;6.63;;;3.97;;
787;SDS011;16074;42.708;23.312;2024-02-21T01:01:02;6.63;;;3.73;;
787;SDS011;16074;42.708;23.312;2024-02-21T01:03:28;6.20;;;3.65;;
787;SDS011;16074;42.708;23.312;2024-02-21T01:05:53;8.17;;;4.10;;
787;SDS011;16074;42.708;23.312;2024-02-21T01:08:18;8.63;;;4.07;;
787;SDS011;16074;42.708;23.312;2024-02-21T01:10:43;8.13;;;3.50;;
787;SDS011;16074;42.708;23.312;2024-02-21T01:13:09;7.00;;;3.83;;
787;SDS011;16074;42.708;23.312;2024-02-21T01:15:34;7.67;;;3.93;;
787;SDS011;16074;42.708;23.312;2024-02-21T01:17:59;7.72;;;4.13;;
787;SDS011;16074;42.708;23.312;2024-02-21T01:20:25;7.43;;;4.03;;
787;SDS011;16074;42.708;23.312;2024-02-21T01:22:50;7.70;;;4.53;;
787;SDS011;16074;42.708;23.312;2024-02-21T01:25:15;5.60;;;3.80;;
787;SDS011;16074;42.708;23.312;2024-02-21T01:27:40;7.85;;;4.03;;
787;SDS011;16074;42.708;23.312;2024-02-21T01:30:06;8.55;;;4.68;;
787;SDS011;16074;42.708;23.312;2024-02-21T01:32:32;7.47;;;3.95;;
787;SDS011;16074;42.708;23.312;2024-02-21T01:34:57;6.63;;;3.80;;
787;SDS011;16074;42.708;23.312;2024-02-21T01:37:22;7.07;;;4.37;;
787;SDS011;16074;42.708;23.312;2024-02-21T01:39:48;7.53;;;4.17;;
787;SDS011;16074;42.708;23.312;2024-02-21T01:42:14;8.30;;;4.30;;
787;SDS011;16074;42.708;23.312;2024-02-21T01:44:39;7.90;;;4.70;;
787;SDS011;16074;42.708;23.312;2024-02-21T01:47:05;7.30;;;3.97;;
787;SDS011;16074;42.708;23.312;2024-02-21T01:49:30;7.30;;;4.67;;
787;SDS011;16074;42.708;23.312;2024-02-21T01:51:55;7.55;;;3.60;;
787;SDS011;16074;42.708;23.312;2024-02-21T01:54:21;8.32;;;4.22;;
787;SDS011;16074;42.708;23.312;2024-02-21T01:56:46;8.55;;;4.72;;
787;SDS011;16074;42.708;23.312;2024-02-21T01:59:12;5.78;;;4.05;;
787;SDS011;16074;42.708;23.312;2024-02-21T02:01:38;7.30;;;4.38;;
787;SDS011;16074;42.708;23.312;2024-02-21T02:04:03;6.35;;;3.67;;
787;SDS011;16074;42.708;23.312;2024-02-21T02:06:30;8.95;;;4.60;;
787;SDS011;16074;42.708;23.312;2024-02-21T02:08:57;7.63;;;4.70;;
787;SDS011;16074;42.708;23.312;2024-02-21T02:11:22;7.18;;;4.15;;
787;SDS011;16074;42.708;23.312;2024-02-21T02:13:48;8.57;;;4.85;;
787;SDS011;16074;42.708;23.312;2024-02-21T02:16:13;8.30;;;4.73;;
787;SDS011;16074;42.708;23.312;2024-02-21T02:18:38;7.27;;;4.47;;
787;SDS011;16074;42.708;23.312;2024-02-21T02:21:04;8.97;;;4.33;;
787;SDS011;16074;42.708;23.312;2024-02-21T02:23:34;8.38;;;4.13;;
787;SDS011;16074;42.708;23.312;2024-02-21T02:25:59;9.03;;;4.97;;
787;SDS011;16074;42.708;23.312;2024-02-21T02:28:26;8.63;;;5.20;;
787;SDS011;16074;42.708;23.312;2024-02-21T02:30:51;9.88;;;5.43;;
787;SDS011;16074;42.708;23.312;2024-02-21T02:33:17;10.67;;;5.57;;
787;SDS011;16074;42.708;23.312;2024-02-21T02:35:42;8.25;;;5.10;;
787;SDS011;16074;42.708;23.312;2024-02-21T02:38:08;10.00;;;5.20;;
787;SDS011;16074;42.708;23.312;2024-02-21T02:40:33;9.50;;;5.53;;
787;SDS011;16074;42.708;23.312;2024-02-21T02:42:59;9.05;;;5.53;;
787;SDS011;16074;42.708;23.312;2024-02-21T02:45:24;9.30;;;5.00;;
787;SDS011;16074;42.708;23.312;2024-02-21T02:47:51;8.65;;;5.05;;
787;SDS011;16074;42.708;23.312;2024-02-21T02:50:16;8.02;;;5.18;;
787;SDS011;16074;42.708;23.312;2024-02-21T02:52:42;9.40;;;5.53;;
787;SDS011;16074;42.708;23.312;2024-02-21T02:55:08;9.83;;;5.70;;
787;SDS011;16074;42.708;23.312;2024-02-21T02:57:34;10.00;;;5.30;;
787;SDS011;16074;42.708;23.312;2024-02-21T02:59:59;9.10;;;5.13;;
787;SDS011;16074;42.708;23.312;2024-02-21T03:02:24;10.23;;;5.57;;
787;SDS011;16074;42.708;23.312;2024-02-21T03:04:49;12.27;;;6.20;;
787;SDS011;16074;42.708;23.312;2024-02-21T03:07:15;11.93;;;6.70;;
787;SDS011;16074;42.708;23.312;2024-02-21T03:09:40;10.07;;;5.53;;
787;SDS011;16074;42.708;23.312;2024-02-21T03:12:05;11.10;;;6.22;;
787;SDS011;16074;42.708;23.312;2024-02-21T03:14:31;14.23;;;6.30;;
787;SDS011;16074;42.708;23.312;2024-02-21T03:16:57;13.20;;;7.07;;
787;SDS011;16074;42.708;23.312;2024-02-21T03:19:22;13.68;;;7.95;;
787;SDS011;16074;42.708;23.312;2024-02-21T03:21:48;12.67;;;7.23;;
787;SDS011;16074;42.708;23.312;2024-02-21T03:24:14;13.57;;;6.80;;
787;SDS011;16074;42.708;23.312;2024-02-21T03:26:40;12.98;;;7.13;;
787;SDS011;16074;42.708;23.312;2024-02-21T03:29:05;20.27;;;11.10;;
787;SDS011;16074;42.708;23.312;2024-02-21T03:31:30;12.03;;;7.33;;
787;SDS011;16074;42.708;23.312;2024-02-21T03:33:56;12.53;;;6.87;;
787;SDS011;16074;42.708;23.312;2024-02-21T03:36:21;12.13;;;6.37;;
787;SDS011;16074;42.708;23.312;2024-02-21T03:38:47;13.30;;;7.03;;
787;SDS011;16074;42.708;23.312;2024-02-21T03:41:12;14.70;;;7.00;;
787;SDS011;16074;42.708;23.312;2024-02-21T03:43:38;10.67;;;6.23;;
787;SDS011;16074;42.708;23.312;2024-02-21T03:46:03;13.15;;;7.35;;
787;SDS011;16074;42.708;23.312;2024-02-21T03:48:29;13.80;;;7.50;;
787;SDS011;16074;42.708;23.312;2024-02-21T03:50:54;12.50;;;6.83;;
787;SDS011;16074;42.708;23.312;2024-02-21T03:53:19;12.83;;;6.77;;
787;SDS011;16074;42.708;23.312;2024-02-21T03:55:44;11.17;;;6.33;;
787;SDS011;16074;42.708;23.312;2024-02-21T03:58:10;10.97;;;7.10;;
787;SDS011;16074;42.708;23.312;2024-02-21T04:00:35;12.27;;;6.80;;
787;SDS011;16074;42.708;23.312;2024-02-21T04:03:00;13.55;;;6.90;;
787;SDS011;16074;42.708;23.312;2024-02-21T04:05:25;14.80;;;7.37;;
787;SDS011;16074;42.708;23.312;2024-02-21T04:07:51;13.30;;;6.53;;
787;SDS011;16074;42.708;23.312;2024-02-21T04:10:17;11.90;;;6.40;;
787;SDS011;16074;42.708;23.312;2024-02-21T04:12:42;12.53;;;7.03;;
787;SDS011;16074;42.708;23.312;2024-02-21T04:15:07;12.90;;;7.03;;
787;SDS011;16074;42.708;23.312;2024-02-21T04:17:33;11.48;;;6.70;;
787;SDS011;16074;42.708;23.312;2024-02-21T04:20:02;12.97;;;6.90;;
787;SDS011;16074;42.708;23.312;2024-02-21T04:22:30;13.45;;;7.05;;
787;SDS011;16074;42.708;23.312;2024-02-21T04:24:55;12.05;;;6.13;;
787;SDS011;16074;42.708;23.312;2024-02-21T04:27:20;13.17;;;7.53;;
787;SDS011;16074;42.708;23.312;2024-02-21T04:29:45;15.77;;;8.27;;
787;SDS011;16074;42.708;23.312;2024-02-21T04:32:11;13.23;;;7.87;;
787;SDS011;16074;42.708;23.312;2024-02-21T04:34:36;12.13;;;6.43;;
787;SDS011;16074;42.708;23.312;2024-02-21T04:37:01;14.30;;;7.37;;
787;SDS011;16074;42.708;23.312;2024-02-21T04:39:27;11.53;;;6.67;;
787;SDS011;16074;42.708;23.312;2024-02-21T04:41:52;13.67;;;7.50;;
787;SDS011;16074;42.708;23.312;2024-02-21T04:44:17;12.63;;;6.70;;
787;SDS011;16074;42.708;23.312;2024-02-21T04:46:46;13.80;;;7.30;;
787;SDS011;16074;42.708;23.312;2024-02-21T04:49:11;14.23;;;7.50;;
787;SDS011;16074;42.708;23.312;2024-02-21T04:51:37;15.83;;;7.87;;
787;SDS011;16074;42.708;23.312;2024-02-21T04:54:02;15.33;;;6.73;;
787;SDS011;16074;42.708;23.312;2024-02-21T04:56:28;15.23;;;7.57;;
787;SDS011;16074;42.708;23.312;2024-02-21T04:58:53;15.10;;;7.53;;
787;SDS011;16074;42.708;23.312;2024-02-21T05:01:19;14.87;;;7.47;;
787;SDS011;16074;42.708;23.312;2024-02-21T05:03:44;13.07;;;7.00;;
787;SDS011;16074;42.708;23.312;2024-02-21T05:06:09;15.37;;;7.60;;
787;SDS011;16074;42.708;23.312;2024-02-21T05:08:35;14.87;;;8.10;;
787;SDS011;16074;42.708;23.312;2024-02-21T05:11:00;15.93;;;8.07;;
787;SDS011;16074;42.708;23.312;2024-02-21T05:13:25;14.77;;;7.93;;
787;SDS011;16074;42.708;23.312;2024-02-21T05:15:50;18.60;;;9.88;;
787;SDS011;16074;42.708;23.312;2024-02-21T05:18:16;16.37;;;8.10;;
787;SDS011;16074;42.708;23.312;2024-02-21T05:20:41;14.23;;;7.60;;
787;SDS011;16074;42.708;23.312;2024-02-21T05:23:06;16.43;;;9.03;;
787;SDS011;16074;42.708;23.312;2024-02-21T05:25:31;18.07;;;9.63;;
787;SDS011;16074;42.708;23.312;2024-02-21T05:27:57;15.20;;;9.03;;
787;SDS011;16074;42.708;23.312;2024-02-21T05:30:26;23.50;;;12.15;;
787;SDS011;16074;42.708;23.312;2024-02-21T05:32:51;19.83;;;9.97;;
787;SDS011;16074;42.708;23.312;2024-02-21T05:35:17;15.07;;;8.53;;
787;SDS011;16074;42.708;23.312;2024-02-21T05:37:42;20.27;;;9.70;;
787;SDS011;16074;42.708;23.312;2024-02-21T05:40:07;18.40;;;10.33;;
787;SDS011;16074;42.708;23.312;2024-02-21T05:42:33;21.08;;;10.00;;
787;SDS011;16074;42.708;23.312;2024-02-21T05:44:58;18.43;;;9.37;;
787;SDS011;16074;42.708;23.312;2024-02-21T05:47:23;16.57;;;9.17;;
787;SDS011;16074;42.708;23.312;2024-02-21T05:49:50;16.77;;;9.10;;
787;SDS011;16074;42.708;23.312;2024-02-21T05:52:18;17.42;;;10.23;;
787;SDS011;16074;42.708;23.312;2024-02-21T05:54:43;21.97;;;10.90;;
787;SDS011;16074;42.708;23.312;2024-02-21T05:57:09;18.67;;;9.53;;
787;SDS011;16074;42.708;23.312;2024-02-21T05:59:34;16.92;;;9.88;;
787;SDS011;16074;42.708;23.312;2024-02-21T06:02:01;16.83;;;8.35;;
787;SDS011;16074;42.708;23.312;2024-02-21T06:04:28;17.73;;;9.00;;
787;SDS011;16074;42.708;23.312;2024-02-21T06:06:54;20.50;;;9.47;;
787;SDS011;16074;42.708;23.312;2024-02-21T06:09:19;22.03;;;10.80;;
787;SDS011;16074;42.708;23.312;2024-02-21T06:11:44;18.37;;;9.60;;
787;SDS011;16074;42.708;23.312;2024-02-21T06:14:11;21.00;;;10.65;;
787;SDS011;16074;42.708;23.312;2024-02-21T06:16:36;30.17;;;11.50;;
787;SDS011;16074;42.708;23.312;2024-02-21T06:19:01;21.63;;;10.33;;
787;SDS011;16074;42.708;23.312;2024-02-21T06:21:31;30.13;;;10.65;;
787;SDS011;16074;42.708;23.312;2024-02-21T06:23:56;19.83;;;9.70;;
787;SDS011;16074;42.708;23.312;2024-02-21T06:26:21;22.90;;;10.53;;
787;SDS011;16074;42.708;23.312;2024-02-21T06:28:47;56.67;;;12.37;;
787;SDS011;16074;42.708;23.312;2024-02-21T06:31:12;23.03;;;10.30;;
787;SDS011;16074;42.708;23.312;2024-02-21T06:33:37;40.27;;;11.07;;
787;SDS011;16074;42.708;23.312;2024-02-21T06:36:02;18.33;;;9.00;;
787;SDS011;16074;42.708;23.312;2024-02-21T06:38:28;30.30;;;10.67;;
787;SDS011;16074;42.708;23.312;2024-02-21T06:40:53;22.23;;;9.43;;
787;SDS011;16074;42.708;23.312;2024-02-21T06:43:19;18.90;;;9.55;;
787;SDS011;16074;42.708;23.312;2024-02-21T06:45:45;22.88;;;9.88;;
787;SDS011;16074;42.708;23.312;2024-02-21T06:48:12;31.48;;;10.15;;
787;SDS011;16074;42.708;23.312;2024-02-21T06:50:38;30.27;;;10.95;;
787;SDS011;16074;42.708;23.312;2024-02-21T06:53:03;28.50;;;11.07;;
787;SDS011;16074;42.708;23.312;2024-02-21T06:55:28;24.23;;;12.97;;
787;SDS011;16074;42.708;23.312;2024-02-21T06:57:53;25.03;;;11.93;;
787;SDS011;16074;42.708;23.312;2024-02-21T07:00:19;25.50;;;12.30;;
787;SDS011;16074;42.708;23.312;2024-02-21T07:02:44;24.17;;;10.75;;
787;SDS011;16074;42.708;23.312;2024-02-21T07:05:09;39.67;;;11.87;;
787;SDS011;16074;42.708;23.312;2024-02-21T07:07:35;23.67;;;10.03;;
787;SDS011;16074;42.708;23.312;2024-02-21T07:10:00;18.67;;;9.93;;
787;SDS011;16074;42.708;23.312;2024-02-21T07:12:26;23.73;;;9.15;;
787;SDS011;16074;42.708;23.312;2024-02-21T07:14:51;30.50;;;10.13;;
787;SDS011;16074;42.708;23.312;2024-02-21T07:17:16;22.83;;;10.40;;
787;SDS011;16074;42.708;23.312;2024-02-21T07:19:41;28.50;;;10.40;;
787;SDS011;16074;42.708;23.312;2024-02-21T07:22:07;23.60;;;10.33;;
787;SDS011;16074;42.708;23.312;2024-02-21T07:24:32;46.80;;;13.20;;
787;SDS011;16074;42.708;23.312;2024-02-21T07:26:57;20.08;;;10.20;;
787;SDS011;16074;42.708;23.312;2024-02-21T07:29:29;18.25;;;9.10;;
787;SDS011;16074;42.708;23.312;2024-02-21T07:31:54;19.00;;;9.90;;
787;SDS011;16074;42.708;23.312;2024-02-21T07:34:19;17.17;;;8.40;;
787;SDS011;16074;42.708;23.312;2024-02-21T07:36:45;16.10;;;9.48;;
787;SDS011;16074;42.708;23.312;2024-02-21T07:39:10;19.45;;;10.20;;
787;SDS011;16074;42.708;23.312;2024-02-21T07:41:36;23.35;;;10.48;;
787;SDS011;16074;42.708;23.312;2024-02-21T07:44:01;19.30;;;10.17;;
787;SDS011;16074;42.708;23.312;2024-02-21T07:46:28;18.98;;;10.10;;
787;SDS011;16074;42.708;23.312;2024-02-21T07:48:53;17.57;;;9.67;;
787;SDS011;16074;42.708;23.312;2024-02-21T07:51:18;21.17;;;10.73;;
787;SDS011;16074;42.708;23.312;2024-02-21T07:53:44;42.78;;;11.88;;
787;SDS011;16074;42.708;23.312;2024-02-21T07:56:13;35.90;;;12.05;;
787;SDS011;16074;42.708;23.312;2024-02-21T07:58:39;26.02;;;10.48;;
787;SDS011;16074;42.708;23.312;2024-02-21T08:01:05;20.73;;;9.77;;
787;SDS011;16074;42.708;23.312;2024-02-21T08:03:30;22.05;;;10.63;;
787;SDS011;16074;42.708;23.312;2024-02-21T08:05:55;24.10;;;10.73;;
787;SDS011;16074;42.708;23.312;2024-02-21T08:08:21;18.77;;;9.47;;
787;SDS011;16074;42.708;23.312;2024-02-21T08:10:47;18.70;;;8.93;;
787;SDS011;16074;42.708;23.312;2024-02-21T08:13:12;18.10;;;9.70;;
787;SDS011;16074;42.708;23.312;2024-02-21T08:15:38;22.13;;;9.55;;
787;SDS011;16074;42.708;23.312;2024-02-21T08:18:04;19.15;;;9.05;;
787;SDS011;16074;42.708;23.312;2024-02-21T08:20:30;22.30;;;10.07;;
787;SDS011;16074;42.708;23.312;2024-02-21T08:22:55;20.67;;;9.88;;
787;SDS011;16074;42.708;23.312;2024-02-21T08:25:20;20.60;;;9.00;;
787;SDS011;16074;42.708;23.312;2024-02-21T08:27:45;19.73;;;9.83;;
787;SDS011;16074;42.708;23.312;2024-02-21T08:30:11;21.80;;;10.27;;
787;SDS011;16074;42.708;23.312;2024-02-21T08:32:37;18.60;;;8.93;;
787;SDS011;16074;42.708;23.312;2024-02-21T08:35:02;15.90;;;9.68;;
787;SDS011;16074;42.708;23.312;2024-02-21T08:37:28;15.60;;;9.20;;
787;SDS011;16074;42.708;23.312;2024-02-21T08:39:53;11.33;;;7.40;;
787;SDS011;16074;42.708;23.312;2024-02-21T08:42:18;15.03;;;7.90;;
787;SDS011;16074;42.708;23.312;2024-02-21T08:44:45;20.47;;;9.07;;
787;SDS011;16074;42.708;23.312;2024-02-21T08:47:11;21.42;;;8.45;;
787;SDS011;16074;42.708;23.312;2024-02-21T08:49:37;15.52;;;7.90;;
787;SDS011;16074;42.708;23.312;2024-02-21T08:52:02;16.83;;;8.27;;
787;SDS011;16074;42.708;23.312;2024-02-21T08:54:28;17.83;;;8.82;;
787;SDS011;16074;42.708;23.312;2024-02-21T08:56:53;19.00;;;8.87;;
787;SDS011;16074;42.708;23.312;2024-02-21T08:59:19;19.95;;;8.90;;
787;SDS011;16074;42.708;23.312;2024-02-21T09:01:45;16.75;;;8.52;;
787;SDS011;16074;42.708;23.312;2024-02-21T09:04:11;14.98;;;8.65;;
787;SDS011;16074;42.708;23.312;2024-02-21T09:06:36;13.40;;;8.60;;
787;SDS011;16074;42.708;23.312;2024-02-21T09:09:04;17.70;;;9.60;;
787;SDS011;16074;42.708;23.312;2024-02-21T09:11:29;15.30;;;8.75;;
787;SDS011;16074;42.708;23.312;2024-02-21T09:13:54;21.80;;;8.90;;
787;SDS011;16074;42.708;23.312;2024-02-21T09:16:20;19.30;;;8.57;;
787;SDS011;16074;42.708;23.312;2024-02-21T09:18:45;26.30;;;11.17;;
787;SDS011;16074;42.708;23.312;2024-02-21T09:21:11;31.95;;;9.50;;
787;SDS011;16074;42.708;23.312;2024-02-21T09:23:38;22.87;;;9.60;;
787;SDS011;16074;42.708;23.312;2024-02-21T09:26:03;20.48;;;8.98;;
787;SDS011;16074;42.708;23.312;2024-02-21T09:28:29;16.35;;;9.00;;
787;SDS011;16074;42.708;23.312;2024-02-21T09:30:56;14.35;;;8.13;;
787;SDS011;16074;42.708;23.312;2024-02-21T09:33:21;12.03;;;7.53;;
787;SDS011;16074;42.708;23.312;2024-02-21T09:35:46;16.23;;;8.73;;
787;SDS011;16074;42.708;23.312;2024-02-21T09:38:12;15.88;;;8.85;;
787;SDS011;16074;42.708;23.312;2024-02-21T09:40:37;19.57;;;9.27;;
787;SDS011;16074;42.708;23.312;2024-02-21T09:43:04;17.95;;;9.18;;
787;SDS011;16074;42.708;23.312;2024-02-21T09:45:31;14.25;;;7.97;;
787;SDS011;16074;42.708;23.312;2024-02-21T09:50:41;12.82;;;7.80;;
787;SDS011;16074;42.708;23.312;2024-02-21T09:53:08;12.20;;;7.78;;
787;SDS011;16074;42.708;23.312;2024-02-21T09:55:34;17.23;;;8.20;;
787;SDS011;16074;42.708;23.312;2024-02-21T09:58:03;13.35;;;8.07;;
787;SDS011;16074;42.708;23.312;2024-02-21T10:00:30;16.88;;;8.57;;
787;SDS011;16074;42.708;23.312;2024-02-21T10:02:55;11.27;;;7.27;;
787;SDS011;16074;42.708;23.312;2024-02-21T10:05:20;12.35;;;7.50;;
787;SDS011;16074;42.708;23.312;2024-02-21T10:07:46;15.33;;;7.40;;
787;SDS011;16074;42.708;23.312;2024-02-21T10:10:11;14.35;;;7.03;;
787;SDS011;16074;42.708;23.312;2024-02-21T10:12:47;12.77;;;6.73;;
787;SDS011;16074;42.708;23.312;2024-02-21T10:15:13;12.93;;;7.63;;
787;SDS011;16074;42.708;23.312;2024-02-21T10:17:39;11.90;;;7.07;;
787;SDS011;16074;42.708;23.312;2024-02-21T10:20:08;12.73;;;7.13;;
787;SDS011;16074;42.708;23.312;2024-02-21T10:22:34;19.52;;;7.63;;
787;SDS011;16074;42.708;23.312;2024-02-21T10:25:07;13.88;;;7.50;;
787;SDS011;16074;42.708;23.312;2024-02-21T10:27:33;12.20;;;6.35;;
787;SDS011;16074;42.708;23.312;2024-02-21T10:29:58;10.70;;;6.47;;
787;SDS011;16074;42.708;23.312;2024-02-21T10:32:23;10.30;;;5.67;;
787;SDS011;16074;42.708;23.312;2024-02-21T10:35:00;9.35;;;6.22;;
787;SDS011;16074;42.708;23.312;2024-02-21T10:37:25;9.25;;;5.78;;
787;SDS011;16074;42.708;23.312;2024-02-21T10:39:50;9.23;;;6.33;;
787;SDS011;16074;42.708;23.312;2024-02-21T10:42:16;8.98;;;5.53;;
787;SDS011;16074;42.708;23.312;2024-02-21T10:44:43;7.95;;;5.28;;
787;SDS011;16074;42.708;23.312;2024-02-21T10:47:11;8.63;;;5.65;;
787;SDS011;16074;42.708;23.312;2024-02-21T10:49:40;6.53;;;4.93;;
787;SDS011;16074;42.708;23.312;2024-02-21T10:52:13;7.47;;;4.93;;
787;SDS011;16074;42.708;23.312;2024-02-21T10:54:44;8.68;;;4.80;;
787;SDS011;16074;42.708;23.312;2024-02-21T10:57:10;9.55;;;4.93;;
787;SDS011;16074;42.708;23.312;2024-02-21T10:59:37;6.85;;;4.85;;
787;SDS011;16074;42.708;23.312;2024-02-21T11:02:04;6.45;;;4.50;;
787;SDS011;16074;42.708;23.312;2024-02-21T11:04:29;5.13;;;4.20;;
787;SDS011;16074;42.708;23.312;2024-02-21T11:06:57;6.13;;;4.45;;
787;SDS011;16074;42.708;23.312;2024-02-21T11:09:31;8.75;;;4.10;;
787;SDS011;16074;42.708;23.312;2024-02-21T11:12:02;7.30;;;4.70;;
787;SDS011;16074;42.708;23.312;2024-02-21T11:16:53;7.77;;;4.50;;
787;SDS011;16074;42.708;23.312;2024-02-21T11:19:27;5.80;;;3.70;;
787;SDS011;16074;42.708;23.312;2024-02-21T11:21:53;5.55;;;4.10;;
787;SDS011;16074;42.708;23.312;2024-02-21T11:24:29;4.72;;;3.45;;
787;SDS011;16074;42.708;23.312;2024-02-21T11:26:55;8.85;;;3.58;;
787;SDS011;16074;42.708;23.312;2024-02-21T11:29:24;5.55;;;3.58;;
787;SDS011;16074;42.708;23.312;2024-02-21T11:31:53;7.68;;;4.10;;
787;SDS011;16074;42.708;23.312;2024-02-21T11:34:18;5.85;;;3.67;;
787;SDS011;16074;42.708;23.312;2024-02-21T11:36:47;10.02;;;4.88;;
787;SDS011;16074;42.708;23.312;2024-02-21T11:39:17;7.78;;;3.92;;
787;SDS011;16074;42.708;23.312;2024-02-21T11:41:44;6.70;;;3.90;;
787;SDS011;16074;42.708;23.312;2024-02-21T11:44:09;6.17;;;4.83;;
787;SDS011;16074;42.708;23.312;2024-02-21T11:46:34;9.40;;;4.80;;
787;SDS011;16074;42.708;23.312;2024-02-21T11:49:00;5.22;;;3.78;;
787;SDS011;16074;42.708;23.312;2024-02-21T11:51:27;6.25;;;3.90;;
787;SDS011;16074;42.708;23.312;2024-02-21T11:53:52;5.78;;;4.13;;
787;SDS011;16074;42.708;23.312;2024-02-21T11:56:18;7.70;;;5.13;;
787;SDS011;16074;42.708;23.312;2024-02-21T11:58:44;8.30;;;5.03;;
787;SDS011;16074;42.708;23.312;2024-02-21T12:01:10;11.00;;;4.43;;
787;SDS011;16074;42.708;23.312;2024-02-21T12:03:35;8.57;;;3.70;;
787;SDS011;16074;42.708;23.312;2024-02-21T12:06:01;9.90;;;4.90;;
787;SDS011;16074;42.708;23.312;2024-02-21T12:08:28;9.07;;;4.70;;
787;SDS011;16074;42.708;23.312;2024-02-21T12:10:54;9.85;;;4.40;;
787;SDS011;16074;42.708;23.312;2024-02-21T12:13:22;9.90;;;5.30;;
787;SDS011;16074;42.708;23.312;2024-02-21T12:15:47;8.00;;;4.45;;
787;SDS011;16074;42.708;23.312;2024-02-21T12:18:14;5.90;;;3.60;;
787;SDS011;16074;42.708;23.312;2024-02-21T12:20:40;10.65;;;4.00;;
787;SDS011;16074;42.708;23.312;2024-02-21T12:23:08;11.43;;;4.60;;
787;SDS011;16074;42.708;23.312;2024-02-21T12:25:33;12.43;;;5.50;;
787;SDS011;16074;42.708;23.312;2024-02-21T12:27:59;8.52;;;4.53;;
787;SDS011;16074;42.708;23.312;2024-02-21T12:30:25;7.68;;;3.88;;
787;SDS011;16074;42.708;23.312;2024-02-21T12:32:51;11.85;;;4.35;;
787;SDS011;16074;42.708;23.312;2024-02-21T12:35:16;13.40;;;5.60;;
787;SDS011;16074;42.708;23.312;2024-02-21T12:37:42;11.45;;;4.68;;
787;SDS011;16074;42.708;23.312;2024-02-21T12:40:09;11.77;;;5.27;;
787;SDS011;16074;42.708;23.312;2024-02-21T12:42:35;9.05;;;4.55;;
787;SDS011;16074;42.708;23.312;2024-02-21T12:45:02;11.07;;;5.25;;
787;SDS011;16074;42.708;23.312;2024-02-21T12:47:28;16.13;;;6.05;;
787;SDS011;16074;42.708;23.312;2024-02-21T12:49:54;12.68;;;5.65;;
787;SDS011;16074;42.708;23.312;2024-02-21T12:52:19;9.90;;;6.20;;
787;SDS011;16074;42.708;23.312;2024-02-21T12:54:44;8.75;;;5.53;;
787;SDS011;16074;42.708;23.312;2024-02-21T12:57:10;15.40;;;6.83;;
787;SDS011;16074;42.708;23.312;2024-02-21T12:59:35;12.53;;;6.77;;
787;SDS011;16074;42.708;23.312;2024-02-21T13:02:00;9.33;;;6.00;;
787;SDS011;16074;42.708;23.312;2024-02-21T13:04:25;9.13;;;5.85;;
787;SDS011;16074;42.708;23.312;2024-02-21T13:06:51;10.05;;;5.70;;
787;SDS011;16074;42.708;23.312;2024-02-21T13:09:16;17.33;;;6.17;;
787;SDS011;16074;42.708;23.312;2024-02-21T13:11:43;12.60;;;5.88;;
787;SDS011;16074;42.708;23.312;2024-02-21T13:14:10;10.93;;;5.15;;
787;SDS011;16074;42.708;23.312;2024-02-21T13:16:35;12.15;;;6.38;;
787;SDS011;16074;42.708;23.312;2024-02-21T13:19:04;12.10;;;6.07;;
787;SDS011;16074;42.708;23.312;2024-02-21T13:21:29;9.77;;;5.80;;
787;SDS011;16074;42.708;23.312;2024-02-21T13:23:55;11.47;;;5.87;;
787;SDS011;16074;42.708;23.312;2024-02-21T13:26:21;9.00;;;5.82;;
787;SDS011;16074;42.708;23.312;2024-02-21T13:28:46;8.27;;;5.40;;
787;SDS011;16074;42.708;23.312;2024-02-21T13:31:13;7.22;;;4.20;;
787;SDS011;16074;42.708;23.312;2024-02-21T13:33:38;7.70;;;4.28;;
787;SDS011;16074;42.708;23.312;2024-02-21T13:36:03;6.90;;;4.33;;
787;SDS011;16074;42.708;23.312;2024-02-21T13:38:29;7.65;;;4.82;;
787;SDS011;16074;42.708;23.312;2024-02-21T13:40:54;8.07;;;4.97;;
787;SDS011;16074;42.708;23.312;2024-02-21T13:43:19;7.40;;;4.70;;
787;SDS011;16074;42.708;23.312;2024-02-21T13:45:55;8.70;;;5.17;;
787;SDS011;16074;42.708;23.312;2024-02-21T13:48:20;9.82;;;5.30;;
787;SDS011;16074;42.708;23.312;2024-02-21T13:50:45;8.50;;;4.80;;
787;SDS011;16074;42.708;23.312;2024-02-21T13:53:11;9.17;;;5.87;;
787;SDS011;16074;42.708;23.312;2024-02-21T13:55:36;10.55;;;5.53;;
787;SDS011;16074;42.708;23.312;2024-02-21T13:58:02;6.93;;;4.40;;
787;SDS011;16074;42.708;23.312;2024-02-21T14:00:28;8.50;;;5.22;;
787;SDS011;16074;42.708;23.312;2024-02-21T14:02:53;8.35;;;5.47;;
787;SDS011;16074;42.708;23.312;2024-02-21T14:05:19;7.90;;;4.80;;
787;SDS011;16074;42.708;23.312;2024-02-21T14:07:44;6.77;;;4.27;;
787;SDS011;16074;42.708;23.312;2024-02-21T14:10:10;6.20;;;4.17;;
787;SDS011;16074;42.708;23.312;2024-02-21T14:12:35;8.90;;;5.03;;
787;SDS011;16074;42.708;23.312;2024-02-21T14:15:01;8.13;;;4.73;;
787;SDS011;16074;42.708;23.312;2024-02-21T14:17:27;10.23;;;4.55;;
787;SDS011;16074;42.708;23.312;2024-02-21T14:19:52;7.87;;;5.00;;
787;SDS011;16074;42.708;23.312;2024-02-21T14:22:17;5.13;;;4.17;;
787;SDS011;16074;42.708;23.312;2024-02-21T14:24:42;7.95;;;5.25;;
787;SDS011;16074;42.708;23.312;2024-02-21T14:27:08;7.77;;;5.27;;
787;SDS011;16074;42.708;23.312;2024-02-21T14:29:33;7.70;;;4.47;;
787;SDS011;16074;42.708;23.312;2024-02-21T14:31:59;8.80;;;5.40;;
787;SDS011;16074;42.708;23.312;2024-02-21T14:34:24;10.50;;;5.13;;
787;SDS011;16074;42.708;23.312;2024-02-21T14:36:49;10.37;;;5.47;;
787;SDS011;16074;42.708;23.312;2024-02-21T14:39:14;9.97;;;4.83;;
787;SDS011;16074;42.708;23.312;2024-02-21T14:41:40;8.83;;;5.63;;
787;SDS011;16074;42.708;23.312;2024-02-21T14:44:05;9.40;;;5.30;;
787;SDS011;16074;42.708;23.312;2024-02-21T14:46:30;7.78;;;4.80;;